createdAt,value
2018-07-07T00:00:20.537Z,17.02
2018-07-07T00:01:20.537Z,16.96
2018-07-07T00:02:20.534Z,16.96
2018-07-07T00:03:20.548Z,16.96
2018-07-07T00:04:20.536Z,16.87
2018-07-07T00:05:20.549Z,16.91
2018-07-07T00:06:20.542Z,16.91
2018-07-07T00:07:20.548Z,16.91
2018-07-07T00:08:20.564Z,16.87
2018-07-07T00:09:20.541Z,16.79
2018-07-07T00:10:20.544Z,16.75
2018-07-07T00:11:20.545Z,16.79
2018-07-07T00:12:20.561Z,16.79
2018-07-07T00:13:20.551Z,16.74
2018-07-07T00:14:20.558Z,16.83
2018-07-07T00:15:20.550Z,16.69
2018-07-07T00:16:20.552Z,16.69
2018-07-07T00:17:20.569Z,16.75
2018-07-07T00:18:20.550Z,16.69
2018-07-07T00:19:20.553Z,16.69
2018-07-07T00:20:20.614Z,16.65
2018-07-07T00:21:20.554Z,16.61
2018-07-07T00:22:20.556Z,16.65
2018-07-07T00:23:20.555Z,16.56
2018-07-07T00:24:20.562Z,16.58
2018-07-07T00:25:20.558Z,16.47
2018-07-07T00:26:20.559Z,16.43
2018-07-07T00:27:20.562Z,16.47
2018-07-07T00:28:20.562Z,16.54
2018-07-07T00:29:20.562Z,16.51
2018-07-07T00:30:20.561Z,16.46
2018-07-07T00:31:20.563Z,16.39
2018-07-07T00:32:20.563Z,16.47
2018-07-07T00:33:20.564Z,16.49
2018-07-07T00:34:20.565Z,16.39
2018-07-07T00:35:20.571Z,16.41
2018-07-07T00:36:20.566Z,16.41
2018-07-07T00:37:20.569Z,16.38
2018-07-07T00:38:20.567Z,16.46
2018-07-07T00:39:20.568Z,16.43
2018-07-07T00:40:20.568Z,16.43
2018-07-07T00:41:20.572Z,16.38
2018-07-07T00:42:20.571Z,16.33
2018-07-07T00:43:20.578Z,16.35
2018-07-07T00:44:20.573Z,16.38
2018-07-07T00:45:20.572Z,16.39
2018-07-07T00:46:20.584Z,16.39
2018-07-07T00:47:20.574Z,16.42
2018-07-07T00:48:20.578Z,16.36
2018-07-07T00:49:20.588Z,16.32
2018-07-07T00:50:20.585Z,16.32
2018-07-07T00:51:20.591Z,16.29
2018-07-07T00:52:20.577Z,16.26
2018-07-07T00:53:20.579Z,16.23
2018-07-07T00:54:20.589Z,16.26
2018-07-07T00:55:20.580Z,16.12
2018-07-07T00:56:20.580Z,16.09
2018-07-07T00:57:20.583Z,16.04
2018-07-07T00:58:20.590Z,16.08
2018-07-07T00:59:20.581Z,16.10
2018-07-07T01:00:20.583Z,16.04
2018-07-07T01:01:20.583Z,16.00
2018-07-07T01:02:20.584Z,16.02
2018-07-07T01:03:20.590Z,16.08
2018-07-07T01:04:20.584Z,15.91
2018-07-07T01:05:20.586Z,16.00
2018-07-07T01:06:20.599Z,16.00
2018-07-07T01:07:20.588Z,15.95
2018-07-07T01:08:20.588Z,15.95
2018-07-07T01:09:20.637Z,15.91
2018-07-07T01:10:20.595Z,15.95
2018-07-07T01:11:20.588Z,15.97
2018-07-07T01:12:20.588Z,15.95
2018-07-07T01:13:20.588Z,15.98
2018-07-07T01:14:20.590Z,15.90
2018-07-07T01:15:20.594Z,15.90
2018-07-07T01:16:20.589Z,15.92
2018-07-07T01:17:20.590Z,15.90
2018-07-07T01:18:20.590Z,15.91
2018-07-07T01:19:20.591Z,15.91
2018-07-07T01:20:20.593Z,15.84
2018-07-07T01:21:20.594Z,15.88
2018-07-07T01:22:20.763Z,15.84
2018-07-07T01:23:20.602Z,15.80
2018-07-07T01:24:20.609Z,15.83
2018-07-07T01:25:20.596Z,15.88
2018-07-07T01:26:20.597Z,15.92
2018-07-07T01:27:20.596Z,15.91
2018-07-07T01:28:20.597Z,15.92
2018-07-07T01:29:20.762Z,15.92
2018-07-07T01:30:20.598Z,15.84
2018-07-07T01:31:20.599Z,15.88
2018-07-07T01:32:20.597Z,15.92
2018-07-07T01:33:20.597Z,15.84
2018-07-07T01:34:20.598Z,15.84
2018-07-07T01:35:20.598Z,15.84
2018-07-07T01:36:20.598Z,15.77
2018-07-07T01:37:20.600Z,15.84
2018-07-07T01:38:20.600Z,15.90
2018-07-07T01:39:20.597Z,15.91
2018-07-07T01:40:20.602Z,15.83
2018-07-07T01:41:20.599Z,15.83
2018-07-07T01:42:20.600Z,15.75
2018-07-07T01:43:20.599Z,15.86
2018-07-07T01:44:20.600Z,15.77
2018-07-07T01:45:20.600Z,15.84
2018-07-07T01:46:20.602Z,15.77
2018-07-07T01:47:20.600Z,15.72
2018-07-07T01:48:20.599Z,15.72
2018-07-07T01:49:20.602Z,15.75
2018-07-07T01:50:20.602Z,15.70
2018-07-07T01:51:20.603Z,15.67
2018-07-07T01:52:20.604Z,15.59
2018-07-07T01:53:20.602Z,15.59
2018-07-07T01:54:20.604Z,15.64
2018-07-07T01:55:20.612Z,15.57
2018-07-07T01:56:20.622Z,15.55
2018-07-07T01:57:20.604Z,15.51
2018-07-07T01:58:20.604Z,15.54
2018-07-07T01:59:20.601Z,15.51
2018-07-07T02:00:20.620Z,15.46
2018-07-07T02:01:20.605Z,15.37
2018-07-07T02:02:20.605Z,15.37
2018-07-07T02:03:20.603Z,15.31
2018-07-07T02:04:20.605Z,15.27
2018-07-07T02:05:20.603Z,15.19
2018-07-07T02:06:20.604Z,15.22
2018-07-07T02:07:20.605Z,15.27
2018-07-07T02:08:20.605Z,15.19
2018-07-07T02:09:20.612Z,15.21
2018-07-07T02:10:20.650Z,15.18
2018-07-07T02:11:20.604Z,15.09
2018-07-07T02:12:20.604Z,15.15
2018-07-07T02:13:20.602Z,15.14
2018-07-07T02:14:20.606Z,15.15
2018-07-07T02:15:20.606Z,15.10
2018-07-07T02:16:20.603Z,14.94
2018-07-07T02:17:20.604Z,14.97
2018-07-07T02:18:20.603Z,15.10
2018-07-07T02:19:20.602Z,14.99
2018-07-07T02:20:20.602Z,14.91
2018-07-07T02:21:20.602Z,14.99
2018-07-07T02:22:20.602Z,14.91
2018-07-07T02:23:20.602Z,14.92
2018-07-07T02:24:20.607Z,14.92
2018-07-07T02:25:20.602Z,14.86
2018-07-07T02:26:20.603Z,14.78
2018-07-07T02:27:20.601Z,14.72
2018-07-07T02:28:20.601Z,14.73
2018-07-07T02:29:20.600Z,14.73
2018-07-07T02:30:20.607Z,14.72
2018-07-07T02:31:20.600Z,14.72
2018-07-07T02:32:20.617Z,14.72
2018-07-07T02:33:20.601Z,14.77
2018-07-07T02:34:20.603Z,14.73
2018-07-07T02:35:20.600Z,14.66
2018-07-07T02:36:20.601Z,14.59
2018-07-07T02:37:20.599Z,14.66
2018-07-07T02:38:20.600Z,14.66
2018-07-07T02:39:20.602Z,14.60
2018-07-07T02:40:20.598Z,14.62
2018-07-07T02:41:20.597Z,14.59
2018-07-07T02:42:20.597Z,14.65
2018-07-07T02:43:20.601Z,14.66
2018-07-07T02:44:20.598Z,14.59
2018-07-07T02:45:20.595Z,14.51
2018-07-07T02:46:20.665Z,14.55
2018-07-07T02:47:20.594Z,14.54
2018-07-07T02:48:20.594Z,14.54
2018-07-07T02:49:20.598Z,14.50
2018-07-07T02:50:20.594Z,14.45
2018-07-07T02:51:20.598Z,14.55
2018-07-07T02:52:20.593Z,14.51
2018-07-07T02:53:20.593Z,14.53
2018-07-07T02:54:20.596Z,14.50
2018-07-07T02:55:20.593Z,14.51
2018-07-07T02:56:20.622Z,14.48
2018-07-07T02:57:20.591Z,14.44
2018-07-07T02:58:20.592Z,14.47
2018-07-07T02:59:20.588Z,14.43
2018-07-07T03:00:20.588Z,14.51
2018-07-07T03:01:20.590Z,14.41
2018-07-07T03:02:20.597Z,14.48
2018-07-07T03:03:20.659Z,14.48
2018-07-07T03:04:20.584Z,14.44
2018-07-07T03:05:20.585Z,14.41
2018-07-07T03:06:20.587Z,14.43
2018-07-07T03:07:20.589Z,14.41
2018-07-07T03:08:20.585Z,14.40
2018-07-07T03:09:20.583Z,14.35
2018-07-07T03:10:20.583Z,14.36
2018-07-07T03:11:20.593Z,14.33
2018-07-07T03:12:20.593Z,14.35
2018-07-07T03:13:20.580Z,14.36
2018-07-07T03:14:20.579Z,14.37
2018-07-07T03:15:20.579Z,14.36
2018-07-07T03:16:20.578Z,14.35
2018-07-07T03:17:20.579Z,14.35
2018-07-07T03:18:40.410Z,14.32
2018-07-07T03:19:20.581Z,14.28
2018-07-07T03:20:20.578Z,14.30
2018-07-07T03:21:20.576Z,14.32
2018-07-07T03:22:20.574Z,14.22
2018-07-07T03:23:20.588Z,14.28
2018-07-07T03:24:20.579Z,14.30
2018-07-07T03:25:20.573Z,14.26
2018-07-07T03:26:20.571Z,14.17
2018-07-07T03:27:20.570Z,14.23
2018-07-07T03:28:20.570Z,14.12
2018-07-07T03:29:20.570Z,14.11
2018-07-07T03:30:20.568Z,14.14
2018-07-07T03:31:20.568Z,14.12
2018-07-07T03:32:20.567Z,14.14
2018-07-07T03:33:20.566Z,14.07
2018-07-07T03:34:20.568Z,14.05
2018-07-07T03:35:20.563Z,14.05
2018-07-07T03:36:20.562Z,14.05
2018-07-07T03:37:20.564Z,13.97
2018-07-07T03:38:20.560Z,14.04
2018-07-07T03:39:20.563Z,14.10
2018-07-07T03:40:20.567Z,14.08
2018-07-07T03:41:20.558Z,14.05
2018-07-07T03:42:20.591Z,14.10
2018-07-07T03:43:20.555Z,14.05
2018-07-07T03:44:20.555Z,14.08
2018-07-07T03:45:20.557Z,14.08
2018-07-07T03:46:20.554Z,14.11
2018-07-07T03:47:20.553Z,14.15
2018-07-07T03:48:20.552Z,14.11
2018-07-07T03:49:20.564Z,14.12
2018-07-07T03:50:20.552Z,14.11
2018-07-07T03:51:20.549Z,14.10
2018-07-07T03:52:20.548Z,14.11
2018-07-07T03:53:20.547Z,14.14
2018-07-07T03:54:20.550Z,14.10
2018-07-07T03:55:20.547Z,14.10
2018-07-07T03:56:20.549Z,14.12
2018-07-07T03:57:20.546Z,14.14
2018-07-07T03:58:20.553Z,14.17
2018-07-07T03:59:20.544Z,14.10
2018-07-07T04:00:20.544Z,14.15
2018-07-07T04:01:20.545Z,14.20
2018-07-07T04:02:20.543Z,14.20
2018-07-07T04:03:20.541Z,14.17
2018-07-07T04:04:20.538Z,14.25
2018-07-07T04:05:20.538Z,14.26
2018-07-07T04:06:20.537Z,14.26
2018-07-07T04:07:20.661Z,14.28
2018-07-07T04:08:20.537Z,14.22
2018-07-07T04:09:20.534Z,14.20
2018-07-07T04:10:20.535Z,14.23
2018-07-07T04:11:20.533Z,14.32
2018-07-07T04:12:20.536Z,14.33
2018-07-07T04:13:20.534Z,14.35
2018-07-07T04:14:20.534Z,14.36
2018-07-07T04:15:20.531Z,14.26
2018-07-07T04:16:20.532Z,14.40
2018-07-07T04:17:20.529Z,14.37
2018-07-07T04:18:20.529Z,14.37
2018-07-07T04:19:20.527Z,14.43
2018-07-07T04:20:20.532Z,14.35
2018-07-07T04:21:20.529Z,14.36
2018-07-07T04:22:20.527Z,14.47
2018-07-07T04:23:20.523Z,14.50
2018-07-07T04:24:20.524Z,14.48
2018-07-07T04:25:20.525Z,14.54
2018-07-07T04:26:20.522Z,14.53
2018-07-07T04:27:20.523Z,14.55
2018-07-07T04:28:20.521Z,14.53
2018-07-07T04:29:20.521Z,14.59
2018-07-07T04:30:20.520Z,14.59
2018-07-07T04:31:20.544Z,14.65
2018-07-07T04:32:20.518Z,14.66
2018-07-07T04:33:20.521Z,14.78
2018-07-07T04:34:20.518Z,14.72
2018-07-07T04:35:20.523Z,14.69
2018-07-07T04:36:20.517Z,14.77
2018-07-07T04:37:20.517Z,14.77
2018-07-07T04:38:20.548Z,14.79
2018-07-07T04:39:20.535Z,14.77
2018-07-07T04:40:20.516Z,14.79
2018-07-07T04:41:20.514Z,14.78
2018-07-07T04:42:20.517Z,14.99
2018-07-07T04:43:20.516Z,15.02
2018-07-07T04:44:20.512Z,15.00
2018-07-07T04:45:20.515Z,15.11
2018-07-07T04:46:20.512Z,15.10
2018-07-07T04:47:20.514Z,15.18
2018-07-07T04:48:20.511Z,15.24
2018-07-07T04:49:20.516Z,15.28
2018-07-07T04:50:20.513Z,15.33
2018-07-07T04:51:20.539Z,15.36
2018-07-07T04:52:20.559Z,15.46
2018-07-07T04:53:20.510Z,15.57
2018-07-07T04:54:20.510Z,15.55
2018-07-07T04:55:20.513Z,15.62
2018-07-07T04:56:20.514Z,15.62
2018-07-07T04:57:20.509Z,15.68
2018-07-07T04:58:20.515Z,15.70
2018-07-07T04:59:20.510Z,15.77
2018-07-07T05:00:20.510Z,15.90
2018-07-07T05:01:20.512Z,15.92
2018-07-07T05:02:20.509Z,16.02
2018-07-07T05:03:20.508Z,16.16
2018-07-07T05:04:20.509Z,16.24
2018-07-07T05:05:20.513Z,16.24
2018-07-07T05:06:20.511Z,16.39
2018-07-07T05:07:20.510Z,16.47
2018-07-07T05:08:20.511Z,16.53
2018-07-07T05:09:20.511Z,16.68
2018-07-07T05:10:20.515Z,16.69
2018-07-07T05:11:20.512Z,16.72
2018-07-07T05:12:20.515Z,16.90
2018-07-07T05:13:20.514Z,17.26
2018-07-07T05:14:20.512Z,17.59
2018-07-07T05:15:20.515Z,17.76
2018-07-07T05:16:20.517Z,18.03
2018-07-07T05:17:20.648Z,18.41
2018-07-07T05:18:20.519Z,19.02
2018-07-07T05:19:20.518Z,19.24
2018-07-07T05:20:20.524Z,19.27
2018-07-07T05:21:20.522Z,19.37
2018-07-07T05:22:20.525Z,19.64
2018-07-07T05:23:20.526Z,20.18
2018-07-07T05:24:20.534Z,20.19
2018-07-07T05:25:20.534Z,20.13
2018-07-07T05:26:20.535Z,20.06
2018-07-07T05:27:20.534Z,20.19
2018-07-07T05:28:20.538Z,20.44
2018-07-07T05:29:20.540Z,20.88
2018-07-07T05:30:20.555Z,21.15
2018-07-07T05:31:20.544Z,21.37
2018-07-07T05:32:20.545Z,21.46
2018-07-07T05:33:20.550Z,21.33
2018-07-07T05:34:20.553Z,21.20
2018-07-07T05:35:20.560Z,21.24
2018-07-07T05:36:20.557Z,21.21
2018-07-07T05:37:20.583Z,21.20
2018-07-07T05:38:20.563Z,21.30
2018-07-07T05:39:20.564Z,21.58
2018-07-07T05:40:20.571Z,21.82
2018-07-07T05:41:20.580Z,21.80
2018-07-07T05:42:20.579Z,21.57
2018-07-07T05:43:20.581Z,21.35
2018-07-07T05:44:20.584Z,21.06
2018-07-07T05:45:20.587Z,20.92
2018-07-07T05:46:20.594Z,20.74
2018-07-07T05:47:20.592Z,20.56
2018-07-07T05:48:20.597Z,20.43
2018-07-07T05:49:20.599Z,20.43
2018-07-07T05:50:20.604Z,20.19
2018-07-07T05:51:20.605Z,20.07
2018-07-07T05:52:20.609Z,20.02
2018-07-07T05:53:20.613Z,20.04
2018-07-07T05:54:20.616Z,19.91
2018-07-07T05:55:20.620Z,20.04
2018-07-07T05:56:20.623Z,20.39
2018-07-07T05:57:20.695Z,20.74
2018-07-07T05:58:20.633Z,20.93
2018-07-07T05:59:20.635Z,21.14
2018-07-07T06:00:20.634Z,21.75
2018-07-07T06:01:20.639Z,22.28
2018-07-07T06:02:20.655Z,22.72
2018-07-07T06:03:20.646Z,22.65
2018-07-07T06:04:20.651Z,22.41
2018-07-07T06:05:20.651Z,22.25
2018-07-07T06:06:20.656Z,21.98
2018-07-07T06:07:20.659Z,21.89
2018-07-07T06:08:20.662Z,21.77
2018-07-07T06:09:20.668Z,21.57
2018-07-07T06:10:20.671Z,21.39
2018-07-07T06:11:20.676Z,21.18
2018-07-07T06:12:20.681Z,21.06
2018-07-07T06:13:20.684Z,20.87
2018-07-07T06:14:20.717Z,20.84
2018-07-07T06:15:20.690Z,20.88
2018-07-07T06:16:20.695Z,20.99
2018-07-07T06:17:20.699Z,21.11
2018-07-07T06:18:20.752Z,21.35
2018-07-07T06:19:20.704Z,21.66
2018-07-07T06:20:20.709Z,21.72
2018-07-07T06:21:20.723Z,21.70
2018-07-07T06:22:20.717Z,21.52
2018-07-07T06:23:20.725Z,21.45
2018-07-07T06:24:20.723Z,21.15
2018-07-07T06:25:20.727Z,20.93
2018-07-07T06:26:20.753Z,20.84
2018-07-07T06:27:20.734Z,20.72
2018-07-07T06:28:20.739Z,20.62
2018-07-07T06:29:20.743Z,20.55
2018-07-07T06:30:20.752Z,20.51
2018-07-07T06:31:20.749Z,20.56
2018-07-07T06:32:20.752Z,20.47
2018-07-07T06:33:20.758Z,20.44
2018-07-07T06:34:20.763Z,20.44
2018-07-07T06:35:20.765Z,20.47
2018-07-07T06:36:20.771Z,20.44
2018-07-07T06:37:20.812Z,20.44
2018-07-07T06:38:20.782Z,20.39
2018-07-07T06:39:20.783Z,20.40
2018-07-07T06:40:20.781Z,20.21
2018-07-07T06:41:20.785Z,20.25
2018-07-07T06:42:20.791Z,20.25
2018-07-07T06:43:20.790Z,20.19
2018-07-07T06:44:20.795Z,20.24
2018-07-07T06:45:20.798Z,20.18
2018-07-07T06:46:20.802Z,20.18
2018-07-07T06:47:20.804Z,20.18
2018-07-07T06:48:20.807Z,20.22
2018-07-07T06:49:20.843Z,20.19
2018-07-07T06:50:20.814Z,20.18
2018-07-07T06:51:20.816Z,20.34
2018-07-07T06:52:20.822Z,20.24
2018-07-07T06:53:20.823Z,20.19
2018-07-07T06:54:20.828Z,20.24
2018-07-07T06:55:20.828Z,20.14
2018-07-07T06:56:20.832Z,20.22
2018-07-07T06:57:20.835Z,20.07
2018-07-07T06:58:20.841Z,20.06
2018-07-07T06:59:20.842Z,19.99
2018-07-07T07:00:20.849Z,20.06
2018-07-07T07:01:20.851Z,19.92
2018-07-07T07:02:20.851Z,19.95
2018-07-07T07:03:20.898Z,19.79
2018-07-07T07:04:20.861Z,19.82
2018-07-07T07:05:20.861Z,19.70
2018-07-07T07:06:20.893Z,19.71
2018-07-07T07:07:20.865Z,19.69
2018-07-07T07:08:20.868Z,19.71
2018-07-07T07:09:20.871Z,19.62
2018-07-07T07:10:20.910Z,19.71
2018-07-07T07:11:20.877Z,19.69
2018-07-07T07:12:20.881Z,19.58
2018-07-07T07:13:20.881Z,19.64
2018-07-07T07:14:20.886Z,19.59
2018-07-07T07:15:20.887Z,19.56
2018-07-07T07:16:20.891Z,19.56
2018-07-07T07:17:20.893Z,19.64
2018-07-07T07:18:20.896Z,19.70
2018-07-07T07:19:20.897Z,19.70
2018-07-07T07:20:20.904Z,19.74
2018-07-07T07:21:20.901Z,19.77
2018-07-07T07:22:20.907Z,19.85
2018-07-07T07:23:20.916Z,19.86
2018-07-07T07:24:20.910Z,19.92
2018-07-07T07:25:20.916Z,19.99
2018-07-07T07:26:20.924Z,20.06
2018-07-07T07:27:20.917Z,20.04
2018-07-07T07:28:20.959Z,20.22
2018-07-07T07:29:20.923Z,20.36
2018-07-07T07:30:20.925Z,20.47
2018-07-07T07:31:20.928Z,20.62
2018-07-07T07:32:20.976Z,20.69
2018-07-07T07:33:20.933Z,20.75
2018-07-07T07:34:20.937Z,20.96
2018-07-07T07:35:20.939Z,21.00
2018-07-07T07:36:20.943Z,21.05
2018-07-07T07:37:20.947Z,21.15
2018-07-07T07:38:20.948Z,21.21
2018-07-07T07:39:20.952Z,21.24
2018-07-07T07:40:20.964Z,21.35
2018-07-07T07:41:20.960Z,21.29
2018-07-07T07:42:20.967Z,21.48
2018-07-07T07:43:20.965Z,21.43
2018-07-07T07:44:20.968Z,21.51
2018-07-07T07:45:20.973Z,21.39
2018-07-07T07:46:20.984Z,21.45
2018-07-07T07:47:20.980Z,21.33
2018-07-07T07:48:20.981Z,21.30
2018-07-07T07:49:20.984Z,21.35
2018-07-07T07:50:20.988Z,21.30
2018-07-07T07:51:20.991Z,21.32
2018-07-07T07:52:20.997Z,21.36
2018-07-07T07:53:20.998Z,21.35
2018-07-07T07:54:21.002Z,21.24
2018-07-07T07:55:21.007Z,21.21
2018-07-07T07:56:21.009Z,21.22
2018-07-07T07:57:21.013Z,21.22
2018-07-07T07:58:21.017Z,21.27
2018-07-07T07:59:21.019Z,21.33
2018-07-07T08:00:21.033Z,21.36
2018-07-07T08:01:21.027Z,21.50
2018-07-07T08:02:21.031Z,21.60
2018-07-07T08:03:21.040Z,21.66
2018-07-07T08:04:21.039Z,21.58
2018-07-07T08:05:21.041Z,21.62
2018-07-07T08:06:21.056Z,21.66
2018-07-07T08:07:21.048Z,21.75
2018-07-07T08:08:21.052Z,21.91
2018-07-07T08:09:21.056Z,21.91
2018-07-07T08:10:21.062Z,21.96
2018-07-07T08:11:21.063Z,22.06
2018-07-07T08:12:21.130Z,21.99
2018-07-07T08:13:21.075Z,22.04
2018-07-07T08:14:21.086Z,21.92
2018-07-07T08:15:21.121Z,21.91
2018-07-07T08:16:21.080Z,21.88
2018-07-07T08:17:22.124Z,21.89
2018-07-07T08:18:21.107Z,21.85
2018-07-07T08:19:21.093Z,21.91
2018-07-07T08:20:21.105Z,21.93
2018-07-07T08:21:21.102Z,21.96
2018-07-07T08:22:21.108Z,22.04
2018-07-07T08:23:21.111Z,21.98
2018-07-07T08:24:21.113Z,22.14
2018-07-07T08:25:21.119Z,22.22
2018-07-07T08:26:21.122Z,22.22
2018-07-07T08:27:21.124Z,22.28
2018-07-07T08:28:21.141Z,22.35
2018-07-07T08:29:21.144Z,22.25
2018-07-07T08:30:21.153Z,22.33
2018-07-07T08:31:21.141Z,22.30
2018-07-07T08:32:21.147Z,22.26
2018-07-07T08:33:21.152Z,22.18
2018-07-07T08:34:21.188Z,22.23
2018-07-07T08:35:21.178Z,22.14
2018-07-07T08:36:21.174Z,22.02
2018-07-07T08:37:21.167Z,22.20
2018-07-07T08:38:21.170Z,22.39
2018-07-07T08:39:21.173Z,22.81
2018-07-07T08:40:21.183Z,23.47
2018-07-07T08:41:21.181Z,24.39
2018-07-07T08:42:21.186Z,25.32
2018-07-07T08:43:21.189Z,26.25
2018-07-07T08:44:21.194Z,27.08
2018-07-07T08:45:21.199Z,27.87
2018-07-07T08:46:21.218Z,28.59
2018-07-07T08:47:21.209Z,29.12
2018-07-07T08:48:21.213Z,29.68
2018-07-07T08:49:21.277Z,30.35
2018-07-07T08:50:21.265Z,30.75
2018-07-07T08:51:21.235Z,31.09
2018-07-07T08:52:21.237Z,31.44
2018-07-07T08:53:21.276Z,31.74
2018-07-07T08:54:21.250Z,31.66
2018-07-07T08:55:21.256Z,31.47
2018-07-07T08:56:21.264Z,31.10
2018-07-07T08:57:21.351Z,30.84
2018-07-07T08:58:21.279Z,30.73
2018-07-07T08:59:21.284Z,31.02
2018-07-07T09:00:21.292Z,31.43
2018-07-07T09:01:21.300Z,31.73
2018-07-07T09:02:21.311Z,32.08
2018-07-07T09:03:21.315Z,32.48
2018-07-07T09:04:21.322Z,33.00
2018-07-07T09:05:21.340Z,33.30
2018-07-07T09:06:21.344Z,33.47
2018-07-07T09:07:21.349Z,33.71
2018-07-07T09:08:21.356Z,33.96
2018-07-07T09:09:21.370Z,34.32
2018-07-07T09:10:21.382Z,34.23
2018-07-07T09:11:21.381Z,34.21
2018-07-07T09:12:21.393Z,34.24
2018-07-07T09:13:21.400Z,34.47
2018-07-07T09:14:21.484Z,34.45
2018-07-07T09:15:21.417Z,34.47
2018-07-07T09:16:21.431Z,34.60
2018-07-07T09:17:21.438Z,34.75
2018-07-07T09:18:21.450Z,34.90
2018-07-07T09:19:21.462Z,35.11
2018-07-07T09:20:21.468Z,34.90
2018-07-07T09:21:21.541Z,34.73
2018-07-07T09:22:21.488Z,34.62
2018-07-07T09:23:21.496Z,34.42
2018-07-07T09:24:21.512Z,34.21
2018-07-07T09:25:21.524Z,34.30
2018-07-07T09:26:21.529Z,34.55
2018-07-07T09:27:21.539Z,35.04
2018-07-07T09:28:21.548Z,35.39
2018-07-07T09:29:21.561Z,35.27
2018-07-07T09:30:21.575Z,35.11
2018-07-07T09:31:21.581Z,34.97
2018-07-07T09:32:21.592Z,35.07
2018-07-07T09:33:21.603Z,35.44
2018-07-07T09:34:21.617Z,35.73
2018-07-07T09:35:21.627Z,35.70
2018-07-07T09:36:21.648Z,35.90
2018-07-07T09:37:21.649Z,36.39
2018-07-07T09:38:21.661Z,36.21
2018-07-07T09:39:21.688Z,36.25
2018-07-07T09:40:21.691Z,36.00
2018-07-07T09:41:21.693Z,35.90
2018-07-07T09:42:21.709Z,36.36
2018-07-07T09:43:21.716Z,36.83
2018-07-07T09:44:21.729Z,37.20
2018-07-07T09:45:21.743Z,37.33
2018-07-07T09:46:21.755Z,37.18
2018-07-07T09:47:21.765Z,36.98
2018-07-07T09:48:21.777Z,36.67
2018-07-07T09:49:21.797Z,36.64
2018-07-07T09:50:21.803Z,37.06
2018-07-07T09:51:21.827Z,36.92
2018-07-07T09:52:21.827Z,36.89
2018-07-07T09:53:21.839Z,37.13
2018-07-07T09:54:21.873Z,36.51
2018-07-07T09:55:21.879Z,36.16
2018-07-07T09:56:21.898Z,35.95
2018-07-07T09:57:21.889Z,35.61
2018-07-07T09:58:21.907Z,35.78
2018-07-07T09:59:21.912Z,35.70
2018-07-07T10:00:21.929Z,35.98
2018-07-07T10:01:21.936Z,36.43
2018-07-07T10:02:21.950Z,36.25
2018-07-07T10:03:21.960Z,36.47
2018-07-07T10:04:21.974Z,36.27
2018-07-07T10:05:21.986Z,35.64
2018-07-07T10:06:21.996Z,35.04
2018-07-07T10:07:22.019Z,34.74
2018-07-07T10:08:22.019Z,34.43
2018-07-07T10:09:22.033Z,34.24
2018-07-07T10:10:22.043Z,34.01
2018-07-07T10:11:22.053Z,34.57
2018-07-07T10:12:22.064Z,34.90
2018-07-07T10:13:22.098Z,35.10
2018-07-07T10:14:22.087Z,35.53
2018-07-07T10:15:22.097Z,35.92
2018-07-07T10:16:22.111Z,35.74
2018-07-07T10:17:22.121Z,35.74
2018-07-07T10:18:22.154Z,35.80
2018-07-07T10:19:22.159Z,36.16
2018-07-07T10:20:22.159Z,36.39
2018-07-07T10:21:22.166Z,36.45
2018-07-07T10:22:22.176Z,36.21
2018-07-07T10:23:22.187Z,35.23
2018-07-07T10:24:22.200Z,34.25
2018-07-07T10:25:22.211Z,33.95
2018-07-07T10:26:22.304Z,33.71
2018-07-07T10:27:22.235Z,33.64
2018-07-07T10:28:22.244Z,33.74
2018-07-07T10:29:22.257Z,33.08
2018-07-07T10:30:22.266Z,32.12
2018-07-07T10:31:22.277Z,31.34
2018-07-07T10:32:22.286Z,31.07
2018-07-07T10:33:22.300Z,30.85
2018-07-07T10:34:22.313Z,30.85
2018-07-07T10:35:22.321Z,30.87
2018-07-07T10:36:22.331Z,30.50
2018-07-07T10:37:22.378Z,30.47
2018-07-07T10:38:22.354Z,30.50
2018-07-07T10:39:22.359Z,30.46
2018-07-07T10:40:22.369Z,30.28
2018-07-07T10:41:22.375Z,30.28
2018-07-07T10:42:22.386Z,30.30
2018-07-07T10:43:22.393Z,30.30
2018-07-07T10:44:22.403Z,30.55
2018-07-07T10:45:22.428Z,30.84
2018-07-07T10:46:22.423Z,31.46
2018-07-07T10:47:22.501Z,31.87
2018-07-07T10:48:22.441Z,32.26
2018-07-07T10:49:22.451Z,32.48
2018-07-07T10:50:22.460Z,32.52
2018-07-07T10:51:22.465Z,32.00
2018-07-07T10:52:22.483Z,32.00
2018-07-07T10:53:22.488Z,32.37
2018-07-07T10:54:22.498Z,32.83
2018-07-07T10:55:22.515Z,33.31
2018-07-07T10:56:22.524Z,33.62
2018-07-07T10:57:22.545Z,33.69
2018-07-07T10:58:22.533Z,33.94
2018-07-07T10:59:22.549Z,34.43
2018-07-07T11:00:22.554Z,35.23
2018-07-07T11:01:22.564Z,35.90
2018-07-07T11:02:22.578Z,36.47
2018-07-07T11:03:22.607Z,36.84
2018-07-07T11:04:22.732Z,37.20
2018-07-07T11:05:22.617Z,37.37
2018-07-07T11:06:22.617Z,37.36
2018-07-07T11:07:22.630Z,37.67
2018-07-07T11:08:22.649Z,37.94
2018-07-07T11:09:22.674Z,38.28
2018-07-07T11:10:22.666Z,38.42
2018-07-07T11:11:22.702Z,38.84
2018-07-07T11:12:22.706Z,38.84
2018-07-07T11:13:22.779Z,38.83
2018-07-07T11:14:22.739Z,39.02
2018-07-07T11:15:22.781Z,39.15
2018-07-07T11:16:22.813Z,39.55
2018-07-07T11:17:22.778Z,40.04
2018-07-07T11:18:22.800Z,40.23
2018-07-07T11:19:22.799Z,40.46
2018-07-07T11:20:22.808Z,40.72
2018-07-07T11:21:22.822Z,40.65
2018-07-07T11:22:22.859Z,40.63
2018-07-07T11:23:22.901Z,40.38
2018-07-07T11:24:22.895Z,40.21
2018-07-07T11:25:22.903Z,40.41
2018-07-07T11:26:22.899Z,40.69
2018-07-07T11:27:22.942Z,41.03
2018-07-07T11:28:22.929Z,41.38
2018-07-07T11:29:22.952Z,41.33
2018-07-07T11:30:22.966Z,41.26
2018-07-07T11:31:22.984Z,41.31
2018-07-07T11:32:22.999Z,41.12
2018-07-07T11:33:23.011Z,40.99
2018-07-07T11:34:23.029Z,40.99
2018-07-07T11:35:23.067Z,41.10
2018-07-07T11:36:23.106Z,41.14
2018-07-07T11:37:23.077Z,41.31
2018-07-07T11:38:23.095Z,41.22
2018-07-07T11:39:23.112Z,41.21
2018-07-07T11:40:23.129Z,41.25
2018-07-07T11:41:23.148Z,41.37
2018-07-07T11:42:23.203Z,41.33
2018-07-07T11:43:23.178Z,40.87
2018-07-07T11:44:23.198Z,40.30
2018-07-07T11:45:23.214Z,40.56
2018-07-07T11:46:23.230Z,40.90
2018-07-07T11:47:23.247Z,41.02
2018-07-07T11:48:23.264Z,41.47
2018-07-07T11:49:23.304Z,41.33
2018-07-07T11:50:23.389Z,41.45
2018-07-07T11:51:23.317Z,41.25
2018-07-07T11:52:23.341Z,41.22
2018-07-07T11:53:23.352Z,41.37
2018-07-07T11:54:23.368Z,41.50
2018-07-07T11:55:23.386Z,41.77
2018-07-07T11:56:23.409Z,41.74
2018-07-07T11:57:23.449Z,41.71
2018-07-07T11:58:23.439Z,41.60
2018-07-07T11:59:23.473Z,41.62
2018-07-07T12:00:23.473Z,41.45
2018-07-07T12:01:23.500Z,41.15
2018-07-07T12:02:23.517Z,40.72
2018-07-07T12:03:23.526Z,40.46
2018-07-07T12:04:23.565Z,40.38
2018-07-07T12:05:23.562Z,40.68
2018-07-07T12:06:23.582Z,40.85
2018-07-07T12:07:23.597Z,40.95
2018-07-07T12:08:23.658Z,41.31
2018-07-07T12:09:23.634Z,41.38
2018-07-07T12:10:23.652Z,41.57
2018-07-07T12:11:23.723Z,41.75
2018-07-07T12:12:23.685Z,41.80
2018-07-07T12:13:23.703Z,41.87
2018-07-07T12:14:23.721Z,42.09
2018-07-07T12:15:23.738Z,42.35
2018-07-07T12:16:23.757Z,42.44
2018-07-07T12:17:23.792Z,42.55
2018-07-07T12:18:23.794Z,42.53
2018-07-07T12:19:23.813Z,42.36
2018-07-07T12:20:23.828Z,42.66
2018-07-07T12:21:23.844Z,42.36
2018-07-07T12:22:23.864Z,42.10
2018-07-07T12:23:23.882Z,42.09
2018-07-07T12:24:23.902Z,41.45
2018-07-07T12:25:23.918Z,41.36
2018-07-07T12:26:23.936Z,41.50
2018-07-07T12:27:23.952Z,41.53
2018-07-07T12:28:23.979Z,41.78
2018-07-07T12:29:23.989Z,41.29
2018-07-07T12:30:24.008Z,41.26
2018-07-07T12:31:24.031Z,41.45
2018-07-07T12:32:24.047Z,41.82
2018-07-07T12:33:24.062Z,41.94
2018-07-07T12:34:24.085Z,42.45
2018-07-07T12:35:24.096Z,42.82
2018-07-07T12:36:24.124Z,43.04
2018-07-07T12:37:24.133Z,42.97
2018-07-07T12:38:24.194Z,42.66
2018-07-07T12:39:24.168Z,42.04
2018-07-07T12:40:24.192Z,42.17
2018-07-07T12:41:24.204Z,42.51
2018-07-07T12:42:24.222Z,42.66
2018-07-07T12:43:24.241Z,42.69
2018-07-07T12:44:24.262Z,42.65
2018-07-07T12:45:24.276Z,42.67
2018-07-07T12:46:24.296Z,42.92
2018-07-07T12:47:24.311Z,42.86
2018-07-07T12:48:24.331Z,42.73
2018-07-07T12:49:24.351Z,43.07
2018-07-07T12:50:24.388Z,43.06
2018-07-07T12:51:24.386Z,43.07
2018-07-07T12:52:24.401Z,42.95